createdAt,value
2023-05-12T00:01:17.533Z,94255.81
2023-05-12T00:03:44.798Z,94236.81
2023-05-12T00:06:12.619Z,94248.31
2023-05-12T00:08:39.494Z,94245.69
2023-05-12T00:11:06.348Z,94246.16
2023-05-12T00:13:33.273Z,94251.09
2023-05-12T00:16:00.280Z,94236.69
2023-05-12T00:18:28.828Z,94237.84
2023-05-12T00:20:56.996Z,94237.53
2023-05-12T00:23:23.828Z,94227.16
2023-05-12T00:25:50.732Z,94244.25
2023-05-12T00:28:19.132Z,94246.25
2023-05-12T00:30:46.013Z,94245.94
2023-05-12T00:33:13.233Z,94237.91
2023-05-12T00:35:40.228Z,94243.94
2023-05-12T00:38:07.164Z,94242.16
2023-05-12T00:40:34.252Z,94237.22
2023-05-12T00:43:01.634Z,94234.75
2023-05-12T00:45:29.933Z,94222.16
2023-05-12T00:47:57.754Z,94235.59
2023-05-12T00:50:25.137Z,94231.19
2023-05-12T00:52:52.910Z,94238.09
2023-05-12T00:55:19.943Z,94238.28
2023-05-12T00:57:46.852Z,94232.91
2023-05-12T01:00:14.264Z,94241.56
2023-05-12T01:02:41.356Z,94237.34
2023-05-12T01:05:10.194Z,94234.38
2023-05-12T01:07:37.236Z,94234.25
2023-05-12T01:10:04.655Z,94230.31
2023-05-12T01:12:32.509Z,94229.47
2023-05-12T01:14:59.588Z,94224.38
2023-05-12T01:17:36.319Z,94228.66
2023-05-12T01:20:06.620Z,94226.22
2023-05-12T01:22:34.255Z,94223.09
2023-05-12T01:25:07.931Z,94223.41
2023-05-12T01:27:35.276Z,94233.91
2023-05-12T01:30:04.618Z,94229.00
2023-05-12T01:32:31.628Z,94227.22
2023-05-12T01:34:58.645Z,94224.44
2023-05-12T01:37:27.029Z,94235.25
2023-05-12T01:39:54.471Z,94225.94
2023-05-12T01:42:21.526Z,94220.84
2023-05-12T01:44:48.400Z,94226.22
2023-05-12T01:47:16.177Z,94223.13
2023-05-12T01:49:43.367Z,94212.47
2023-05-12T01:52:10.203Z,94223.13
2023-05-12T01:54:37.261Z,94211.84
2023-05-12T01:57:04.590Z,94225.75
2023-05-12T01:59:31.582Z,94220.19
2023-05-12T02:01:58.478Z,94223.44
2023-05-12T02:04:25.405Z,94218.22
2023-05-12T02:06:52.298Z,94224.25
2023-05-12T02:09:19.443Z,94232.63
2023-05-12T02:11:46.289Z,94232.25
2023-05-12T02:14:13.144Z,94229.00
2023-05-12T02:16:40.048Z,94229.16
2023-05-12T02:19:06.988Z,94233.25
2023-05-12T02:21:33.843Z,94222.41
2023-05-12T02:24:00.684Z,94234.50
2023-05-12T02:26:27.560Z,94235.50
2023-05-12T02:28:54.683Z,94229.91
2023-05-12T02:31:21.544Z,94235.50
2023-05-12T02:33:48.686Z,94220.22
2023-05-12T02:36:15.523Z,94230.53
2023-05-12T02:38:42.381Z,94247.22
2023-05-12T02:41:09.454Z,94241.13
2023-05-12T02:43:36.530Z,94247.88
2023-05-12T02:46:03.468Z,94241.16
2023-05-12T02:48:30.358Z,94243.94
2023-05-12T02:50:57.501Z,94242.00
2023-05-12T02:53:24.322Z,94238.56
2023-05-12T02:55:51.302Z,94248.72
2023-05-12T02:58:18.140Z,94240.38
2023-05-12T03:00:45.047Z,94239.03
2023-05-12T03:03:12.657Z,94242.63
2023-05-12T03:05:39.641Z,94235.56
2023-05-12T03:08:06.496Z,94238.50
2023-05-12T03:10:33.369Z,94222.78
2023-05-12T03:13:00.188Z,94240.50
2023-05-12T03:15:27.050Z,94243.63
2023-05-12T03:17:53.975Z,94233.84
2023-05-12T03:20:21.006Z,94223.38
2023-05-12T03:22:48.058Z,94226.84
2023-05-12T03:25:15.880Z,94230.94
2023-05-12T03:27:43.567Z,94218.97
2023-05-12T03:30:11.709Z,94223.06
2023-05-12T03:32:39.641Z,94215.88
2023-05-12T03:35:07.695Z,94221.13
2023-05-12T03:37:34.650Z,94226.50
2023-05-12T03:40:01.529Z,94216.66
2023-05-12T03:42:28.766Z,94220.41
2023-05-12T03:44:55.683Z,94219.13
2023-05-12T03:47:22.669Z,94226.94
2023-05-12T03:49:49.571Z,94227.25
2023-05-12T03:52:16.463Z,94232.34
2023-05-12T03:54:43.343Z,94228.59
2023-05-12T03:57:10.176Z,94238.56
2023-05-12T03:59:37.015Z,94223.38
2023-05-12T04:02:04.543Z,94217.47
2023-05-12T04:04:31.648Z,94229.09
2023-05-12T04:06:59.965Z,94228.28
2023-05-12T04:09:26.793Z,94221.75
2023-05-12T04:11:53.621Z,94215.19
2023-05-12T04:14:26.533Z,94225.31
2023-05-12T04:16:58.983Z,94217.16
2023-05-12T04:19:26.075Z,94224.00
2023-05-12T04:21:52.923Z,94227.47
2023-05-12T04:24:19.732Z,94224.34
2023-05-12T04:26:46.567Z,94217.81
2023-05-12T04:29:13.572Z,94225.66
2023-05-12T04:31:40.534Z,94224.81
2023-05-12T04:34:07.425Z,94227.63
2023-05-12T04:36:34.383Z,94233.84
2023-05-12T04:39:01.197Z,94227.47
2023-05-12T04:41:28.101Z,94222.56
2023-05-12T04:46:24.673Z,94227.94
2023-05-12T04:48:51.535Z,94247.56
2023-05-12T04:51:18.449Z,94241.03
2023-05-12T04:53:45.271Z,94245.16
2023-05-12T04:56:12.125Z,94245.94
2023-05-12T04:58:38.932Z,94251.22
2023-05-12T05:01:05.834Z,94247.28
2023-05-12T05:03:32.833Z,94247.63
2023-05-12T05:05:59.857Z,94245.34
2023-05-12T05:08:26.666Z,94245.34
2023-05-12T05:10:53.528Z,94243.41
2023-05-12T05:13:20.490Z,94247.31
2023-05-12T05:15:52.227Z,94246.69
2023-05-12T05:18:21.065Z,94254.84
2023-05-12T05:20:57.140Z,94256.03
2023-05-12T05:23:26.182Z,94252.25
2023-05-12T05:25:53.182Z,94259.47
2023-05-12T05:28:20.011Z,94259.31
2023-05-12T05:30:46.920Z,94256.84
2023-05-12T05:33:13.832Z,94261.59
2023-05-12T05:35:40.828Z,94268.97
2023-05-12T05:38:07.668Z,94266.38
2023-05-12T05:40:48.705Z,94265.41
2023-05-12T05:43:16.043Z,94256.88
2023-05-12T05:45:42.887Z,94263.22
2023-05-12T05:48:09.806Z,94253.59
2023-05-12T05:50:36.867Z,94263.41
2023-05-12T05:53:03.714Z,94260.13
2023-05-12T05:55:30.518Z,94256.88
2023-05-12T05:57:57.361Z,94268.50
2023-05-12T06:00:24.284Z,94264.03
2023-05-12T06:02:51.522Z,94260.47
2023-05-12T06:05:18.761Z,94263.56
2023-05-12T06:07:45.758Z,94260.75
2023-05-12T06:10:12.590Z,94270.88
2023-05-12T06:12:41.063Z,94265.28
2023-05-12T06:15:08.724Z,94266.47
2023-05-12T06:17:35.751Z,94265.09
2023-05-12T06:20:03.525Z,94266.69
2023-05-12T06:22:30.347Z,94262.13
2023-05-12T06:24:57.331Z,94267.50
2023-05-12T06:27:24.161Z,94273.00
2023-05-12T06:29:51.931Z,94271.38
2023-05-12T06:32:19.325Z,94273.97
2023-05-12T06:34:46.171Z,94278.31
2023-05-12T06:37:13.201Z,94286.34
2023-05-12T06:39:40.168Z,94243.75
2023-05-12T06:42:07.039Z,94266.78
2023-05-12T06:44:33.918Z,94250.94
2023-05-12T06:47:00.746Z,94271.81
2023-05-12T06:49:27.646Z,94265.16
2023-05-12T06:51:54.806Z,94264.09
2023-05-12T06:54:21.660Z,94260.59
2023-05-12T06:56:48.773Z,94264.16
2023-05-12T06:59:15.817Z,94267.97
2023-05-12T07:01:43.343Z,94243.56
2023-05-12T07:04:10.521Z,94262.13
2023-05-12T07:06:37.578Z,94236.53
2023-05-12T07:09:04.672Z,94255.91
2023-05-12T07:11:31.621Z,94264.53
2023-05-12T07:13:58.500Z,94235.38
2023-05-12T07:16:25.553Z,94254.00
2023-05-12T07:18:52.529Z,94263.63
2023-05-12T07:21:19.542Z,94267.72
2023-05-12T07:23:46.432Z,94255.38
2023-05-12T07:26:13.376Z,94255.00
2023-05-12T07:28:40.247Z,94253.81
2023-05-12T07:31:08.737Z,94257.38
2023-05-12T07:33:36.443Z,94260.19
2023-05-12T07:36:04.914Z,94258.88
2023-05-12T07:38:32.916Z,94267.22
2023-05-12T07:41:00.779Z,94264.72
2023-05-12T07:43:27.881Z,94270.28
2023-05-12T07:45:56.284Z,94258.19
2023-05-12T07:48:23.209Z,94251.25
2023-05-12T07:50:50.061Z,94259.31
2023-05-12T07:53:16.971Z,94243.69
2023-05-12T07:55:44.327Z,94263.56
2023-05-12T07:58:12.514Z,94254.53
2023-05-12T08:00:40.621Z,94262.16
2023-05-12T08:03:07.904Z,94269.53
2023-05-12T08:05:34.908Z,94264.88
2023-05-12T08:08:01.831Z,94263.13
2023-05-12T08:10:30.108Z,94230.59
2023-05-12T08:12:57.003Z,94233.84
2023-05-12T08:15:23.977Z,94252.69
2023-05-12T08:17:50.994Z,94253.22
2023-05-12T08:20:17.959Z,94250.06
2023-05-12T08:22:44.888Z,94261.38
2023-05-12T08:25:12.770Z,94219.53
2023-05-12T08:27:44.552Z,94242.16
2023-05-12T08:30:12.201Z,94259.75
2023-05-12T08:32:39.328Z,94238.56
2023-05-12T08:35:06.788Z,94232.03
2023-05-12T08:37:34.496Z,94238.38
2023-05-12T08:40:02.031Z,94244.81
2023-05-12T08:42:55.967Z,94237.53
2023-05-12T08:45:24.059Z,94235.34
2023-05-12T08:47:54.067Z,94238.03
2023-05-12T08:50:23.624Z,94209.56
2023-05-12T08:52:51.641Z,94220.16
2023-05-12T08:55:19.953Z,94223.19
2023-05-12T08:57:48.689Z,94217.25
2023-05-12T09:00:17.004Z,94223.19
2023-05-12T09:02:52.993Z,94251.94
2023-05-12T09:05:22.999Z,94210.00
2023-05-12T09:07:50.663Z,94268.69
2023-05-12T09:10:33.568Z,94263.03
2023-05-12T09:13:14.198Z,94243.88
2023-05-12T09:15:46.193Z,94239.81
2023-05-12T09:18:13.206Z,94237.16
2023-05-12T09:20:40.147Z,94246.72
2023-05-12T09:23:22.220Z,94264.25
2023-05-12T09:26:03.204Z,94263.22
2023-05-12T09:28:39.278Z,94243.84
2023-05-12T09:31:27.352Z,94265.88
2023-05-12T09:33:54.275Z,94262.59
2023-05-12T09:36:24.353Z,94267.56
2023-05-12T09:39:07.074Z,94266.75
2023-05-12T09:41:42.353Z,94272.03
2023-05-12T09:44:11.295Z,94268.34
2023-05-12T09:46:40.051Z,94255.13
2023-05-12T09:49:07.063Z,94259.81
2023-05-12T09:51:34.145Z,94261.03
2023-05-12T09:54:01.573Z,94267.78
2023-05-12T09:56:30.085Z,94268.38
2023-05-12T09:58:58.360Z,94264.72
2023-05-12T10:01:26.671Z,94214.56
2023-05-12T10:04:01.156Z,94250.81
2023-05-12T10:06:43.284Z,94254.88
2023-05-12T10:09:22.479Z,94272.00
2023-05-12T10:11:53.721Z,94265.84
2023-05-12T10:14:23.164Z,94259.34
2023-05-12T10:16:51.555Z,94269.50
2023-05-12T10:19:19.343Z,94264.81
2023-05-12T10:21:47.244Z,94236.69
2023-05-12T10:24:17.068Z,94232.41
2023-05-12T10:26:45.051Z,94230.59
2023-05-12T10:29:13.269Z,94260.94
2023-05-12T10:31:40.747Z,94258.06
2023-05-12T10:34:07.671Z,94238.03
2023-05-12T10:36:49.917Z,94264.53
2023-05-12T10:39:17.107Z,94263.75
2023-05-12T10:41:44.188Z,94251.97
2023-05-12T10:44:11.490Z,94262.13
2023-05-12T10:46:38.771Z,94269.88
2023-05-12T10:49:10.698Z,94265.81
2023-05-12T10:51:37.979Z,94263.75
2023-05-12T10:54:07.967Z,94270.69
2023-05-12T10:56:38.668Z,94264.97
2023-05-12T10:59:14.858Z,94260.09
2023-05-12T11:01:44.683Z,94254.41
2023-05-12T11:04:20.339Z,94270.94
2023-05-12T11:07:01.288Z,94238.16
2023-05-12T11:09:29.341Z,94265.06
2023-05-12T11:11:56.903Z,94259.34
2023-05-12T11:14:24.313Z,94262.22
2023-05-12T11:16:51.224Z,94266.91
2023-05-12T11:19:18.913Z,94263.06
2023-05-12T11:21:45.869Z,94267.16
2023-05-12T11:24:13.397Z,94263.91
2023-05-12T11:26:41.673Z,94275.28
2023-05-12T11:29:08.634Z,94267.38
2023-05-12T11:31:35.501Z,94260.66
2023-05-12T11:34:13.512Z,94277.31
2023-05-12T11:36:44.566Z,94278.75
2023-05-12T11:39:20.988Z,94269.59
2023-05-12T11:41:51.341Z,94274.06
2023-05-12T11:44:21.682Z,94275.31
2023-05-12T11:47:13.105Z,94260.63
2023-05-12T11:50:07.652Z,94264.31
2023-05-12T11:52:34.648Z,94280.59
2023-05-12T11:55:01.634Z,94276.91
2023-05-12T11:57:33.621Z,94280.19
2023-05-12T12:00:07.092Z,94277.69
2023-05-12T12:02:36.066Z,94262.41
2023-05-12T12:05:03.668Z,94258.59
2023-05-12T12:07:36.672Z,94278.13
2023-05-12T12:10:17.441Z,94273.25
2023-05-12T12:12:45.958Z,94275.31
2023-05-12T12:15:13.487Z,94245.16
2023-05-12T12:17:40.715Z,94275.31
2023-05-12T12:20:09.390Z,94271.81
2023-05-12T12:22:36.651Z,94280.38
2023-05-12T12:25:04.311Z,94272.03
2023-05-12T12:27:31.258Z,94273.06
2023-05-12T12:29:58.155Z,94274.88
2023-05-12T12:32:25.202Z,94275.91
2023-05-12T12:34:53.521Z,94278.75
2023-05-12T12:37:20.415Z,94281.16
2023-05-12T12:39:48.072Z,94273.41
2023-05-12T12:42:15.814Z,94276.06
2023-05-12T12:44:43.994Z,94280.81
2023-05-12T12:47:10.924Z,94255.94
2023-05-12T12:49:37.918Z,94258.38
2023-05-12T12:52:05.195Z,94264.72
2023-05-12T12:54:32.100Z,94260.41
2023-05-12T12:56:59.020Z,94283.03
2023-05-12T12:59:27.132Z,94266.94
2023-05-12T13:01:54.146Z,94264.91
2023-05-12T13:04:23.197Z,94264.47
2023-05-12T13:06:50.161Z,94274.84
2023-05-12T13:09:19.998Z,94282.59
2023-05-12T13:11:47.980Z,94277.31
2023-05-12T13:14:14.880Z,94286.69
2023-05-12T13:16:42.268Z,94260.19
2023-05-12T13:19:09.254Z,94277.09
2023-05-12T13:21:36.327Z,94267.13
2023-05-12T13:24:03.363Z,94261.81
2023-05-12T13:26:30.197Z,94277.28
2023-05-12T13:28:57.497Z,94275.25
2023-05-12T13:31:24.473Z,94270.34
2023-05-12T13:33:51.396Z,94269.47
2023-05-12T13:36:19.633Z,94261.28
2023-05-12T13:38:49.119Z,94257.19
2023-05-12T13:41:16.053Z,94262.81
2023-05-12T13:43:43.861Z,94256.50
2023-05-12T13:46:10.863Z,94258.72
2023-05-12T13:48:37.807Z,94271.53
2023-05-12T13:51:04.984Z,94273.25
2023-05-12T13:53:32.478Z,94278.41
2023-05-12T13:55:59.412Z,94247.94
2023-05-12T13:58:26.264Z,94266.88
2023-05-12T14:00:53.414Z,94275.66
2023-05-12T14:03:21.005Z,94256.53
2023-05-12T14:05:47.949Z,94280.16
2023-05-12T14:08:14.863Z,94248.41
2023-05-12T14:10:41.751Z,94269.56
2023-05-12T14:13:08.725Z,94256.31
2023-05-12T14:15:47.961Z,94265.50
2023-05-12T14:18:16.770Z,94231.88
2023-05-12T14:20:43.696Z,94262.00
2023-05-12T14:23:10.629Z,94256.88
2023-05-12T14:25:37.554Z,94257.19
2023-05-12T14:28:04.545Z,94255.19
2023-05-12T14:30:31.486Z,94250.22
2023-05-12T14:32:58.422Z,94251.72
2023-05-12T14:35:27.909Z,94258.50
2023-05-12T14:37:55.826Z,94251.16
2023-05-12T14:40:23.633Z,94252.41
2023-05-12T14:42:50.758Z,94269.50
2023-05-12T14:45:17.934Z,94247.03
2023-05-12T14:47:45.198Z,94228.59
2023-05-12T14:50:12.381Z,94236.75
2023-05-12T14:52:39.706Z,94223.34
2023-05-12T14:55:12.024Z,94247.06
2023-05-12T14:57:40.802Z,94243.38
2023-05-12T15:00:11.051Z,94256.41
2023-05-12T15:02:39.864Z,94256.44
2023-05-12T15:05:08.955Z,94255.78
2023-05-12T15:07:36.877Z,94230.41
2023-05-12T15:10:05.218Z,94248.41
2023-05-12T15:12:33.338Z,94238.72
2023-05-12T15:15:02.399Z,94240.03
2023-05-12T15:17:29.384Z,94241.97
2023-05-12T15:19:56.728Z,94228.66
2023-05-12T15:22:23.751Z,94236.41
2023-05-12T15:24:50.751Z,94247.88
2023-05-12T15:27:17.682Z,94217.72
2023-05-12T15:29:44.630Z,94255.09
2023-05-12T15:32:11.532Z,94267.47
2023-05-12T15:34:39.379Z,94258.72
2023-05-12T15:37:06.779Z,94268.13
2023-05-12T15:39:33.791Z,94219.75
2023-05-12T15:42:01.308Z,94227.13
2023-05-12T15:44:28.241Z,94267.50
2023-05-12T15:46:55.421Z,94243.94
2023-05-12T15:49:22.666Z,94264.22
2023-05-12T15:51:49.533Z,94228.19
2023-05-12T15:54:16.773Z,94261.31
2023-05-12T15:56:43.820Z,94234.50
2023-05-12T15:59:12.376Z,94263.59
2023-05-12T16:01:39.355Z,94260.31
2023-05-12T16:04:07.066Z,94274.06
2023-05-12T16:06:35.276Z,94276.31
2023-05-12T16:09:02.432Z,94267.00
2023-05-12T16:11:29.936Z,94270.03
2023-05-12T16:13:57.483Z,94258.44
2023-05-12T16:16:24.664Z,94265.41
2023-05-12T16:18:51.595Z,94283.53
2023-05-12T16:21:18.631Z,94265.41
2023-05-12T16:23:45.517Z,94281.38
2023-05-12T16:26:12.408Z,94282.16
2023-05-12T16:28:39.296Z,94277.53
2023-05-12T16:31:06.136Z,94283.41
2023-05-12T16:33:33.097Z,94267.13
2023-05-12T16:36:00.067Z,94275.28
2023-05-12T16:38:27.062Z,94278.53
2023-05-12T16:40:53.913Z,94286.09
2023-05-12T16:43:20.825Z,94281.41
2023-05-12T16:45:48.314Z,94265.91
2023-05-12T16:48:15.321Z,94286.50
2023-05-12T16:50:42.163Z,94285.09
2023-05-12T16:53:09.016Z,94286.72
2023-05-12T16:55:35.954Z,94282.63
2023-05-12T16:58:02.839Z,94285.06
2023-05-12T17:00:30.151Z,94302.56
2023-05-12T17:02:57.164Z,94301.16
2023-05-12T17:05:24.834Z,94301.78
2023-05-12T17:07:51.799Z,94297.66
2023-05-12T17:10:18.655Z,94295.63
2023-05-12T17:12:45.488Z,94304.34
2023-05-12T17:15:12.321Z,94300.03
2023-05-12T17:17:39.552Z,94318.97
2023-05-12T17:20:07.221Z,94335.03
2023-05-12T17:22:37.387Z,94331.97
2023-05-12T17:25:04.715Z,94334.00
2023-05-12T17:27:31.711Z,94339.13
2023-05-12T17:29:59.970Z,94329.34
2023-05-12T17:32:27.225Z,94336.25
2023-05-12T17:34:54.072Z,94339.50
2023-05-12T17:37:20.943Z,94337.47
2023-05-12T17:39:47.808Z,94341.72
2023-05-12T17:42:14.701Z,94334.97
2023-05-12T17:44:41.727Z,94341.31
2023-05-12T17:47:08.786Z,94333.75
2023-05-12T17:49:35.757Z,94343.09
2023-05-12T17:52:02.588Z,94330.03
2023-05-12T17:54:29.522Z,94342.47
2023-05-12T17:56:56.380Z,94337.78
2023-05-12T17:59:23.260Z,94340.97
2023-05-12T18:01:50.121Z,94332.41
2023-05-12T18:04:17.261Z,94337.31
2023-05-12T18:06:44.114Z,94355.59
2023-05-12T18:09:11.021Z,94348.28
2023-05-12T18:11:37.881Z,94351.28
2023-05-12T18:14:06.211Z,94357.59
2023-05-12T18:16:33.538Z,94360.50
2023-05-12T18:19:00.854Z,94368.19
2023-05-12T18:21:27.802Z,94343.22
2023-05-12T18:23:54.670Z,94366.47
2023-05-12T18:26:22.185Z,94357.50
2023-05-12T18:28:49.044Z,94360.31
2023-05-12T18:31:19.611Z,94364.81
2023-05-12T18:33:48.141Z,94372.72
2023-05-12T18:36:16.279Z,94370.69
2023-05-12T18:38:43.714Z,94372.88
2023-05-12T18:41:11.665Z,94354.56
2023-05-12T18:43:38.760Z,94355.88
2023-05-12T18:46:06.257Z,94340.31
2023-05-12T18:48:33.311Z,94363.47
2023-05-12T18:51:01.487Z,94370.47
2023-05-12T18:53:28.446Z,94348.47
2023-05-12T18:55:55.390Z,94373.59
2023-05-12T18:58:22.328Z,94373.97
2023-05-12T19:00:49.177Z,94384.41
2023-05-12T19:03:16.478Z,94364.25
2023-05-12T19:05:44.779Z,94386.19
2023-05-12T19:08:12.764Z,94383.94
2023-05-12T19:10:40.242Z,94379.66
2023-05-12T19:13:07.440Z,94376.75
2023-05-12T19:15:34.503Z,94385.66
2023-05-12T19:18:01.326Z,94388.13
2023-05-12T19:20:29.203Z,94383.03
2023-05-12T19:22:56.098Z,94394.31
2023-05-12T19:25:23.431Z,94392.22
2023-05-12T19:27:51.071Z,94390.94
2023-05-12T19:30:18.073Z,94400.00
2023-05-12T19:32:46.326Z,94398.00
2023-05-12T19:35:16.919Z,94403.28
2023-05-12T19:37:44.144Z,94401.63
2023-05-12T19:40:11.531Z,94399.75
2023-05-12T19:42:38.378Z,94405.91
2023-05-12T19:45:06.216Z,94404.03
2023-05-12T19:47:33.638Z,94406.97
2023-05-12T19:50:01.033Z,94406.59
2023-05-12T19:52:30.831Z,94408.41
2023-05-12T19:54:57.857Z,94401.69
2023-05-12T19:57:24.675Z,94392.97
2023-05-12T19:59:51.559Z,94389.78
2023-05-12T20:02:18.584Z,94404.16
2023-05-12T20:04:45.555Z,94408.59
2023-05-12T20:07:12.441Z,94413.81
2023-05-12T20:09:39.281Z,94416.50
2023-05-12T20:12:08.163Z,94416.41
2023-05-12T20:14:38.627Z,94424.81
2023-05-12T20:17:07.569Z,94420.00
2023-05-12T20:19:34.757Z,94425.38
2023-05-12T20:22:01.975Z,94427.56
2023-05-12T20:24:28.924Z,94413.56
2023-05-12T20:26:56.158Z,94431.13
2023-05-12T20:29:23.224Z,94422.47
2023-05-12T20:31:51.513Z,94436.75
2023-05-12T20:34:19.423Z,94433.38
2023-05-12T20:36:47.139Z,94427.22
2023-05-12T20:39:14.351Z,94440.41
2023-05-12T20:41:43.620Z,94434.13
2023-05-12T20:44:11.078Z,94427.41
2023-05-12T20:46:38.912Z,94429.47
2023-05-12T20:49:06.505Z,94419.03
2023-05-12T20:51:33.569Z,94436.75
2023-05-12T20:54:00.583Z,94440.66
2023-05-12T20:56:27.471Z,94432.75
2023-05-12T20:58:54.407Z,94418.03
2023-05-12T21:01:21.441Z,94440.13
2023-05-12T21:03:48.738Z,94443.28
2023-05-12T21:06:16.034Z,94438.84
2023-05-12T21:08:42.854Z,94446.13
2023-05-12T21:11:19.307Z,94439.66
2023-05-12T21:13:47.288Z,94435.94
2023-05-12T21:16:15.527Z,94436.84
2023-05-12T21:18:42.611Z,94435.66
2023-05-12T21:21:09.509Z,94450.13
2023-05-12T21:23:37.677Z,94439.88
2023-05-12T21:26:05.394Z,94438.69
2023-05-12T21:28:32.313Z,94442.31
2023-05-12T21:30:59.253Z,94443.22
2023-05-12T21:33:26.129Z,94438.63
2023-05-12T21:35:52.963Z,94433.75
2023-05-12T21:38:21.034Z,94435.63
2023-05-12T21:40:56.506Z,94447.16
2023-05-12T21:43:23.397Z,94444.59
2023-05-12T21:45:50.258Z,94436.50
2023-05-12T21:48:17.780Z,94440.59
2023-05-12T21:50:44.617Z,94443.94
2023-05-12T21:53:11.856Z,94443.69
2023-05-12T21:55:40.881Z,94439.69
2023-05-12T21:58:07.704Z,94431.34
2023-05-12T22:00:34.571Z,94440.03
2023-05-12T22:03:01.514Z,94441.97
2023-05-12T22:05:28.415Z,94433.88
2023-05-12T22:07:55.861Z,94421.34
2023-05-12T22:10:22.890Z,94444.34
2023-05-12T22:12:49.837Z,94436.78
2023-05-12T22:15:18.077Z,94439.06
2023-05-12T22:17:48.893Z,94446.78
2023-05-12T22:20:17.460Z,94432.53
2023-05-12T22:22:44.520Z,94445.31
2023-05-12T22:25:11.583Z,94438.16
2023-05-12T22:27:38.529Z,94431.50
2023-05-12T22:30:06.262Z,94436.44
2023-05-12T22:32:33.363Z,94434.03
2023-05-12T22:35:00.354Z,94437.69
2023-05-12T22:37:27.514Z,94438.97
2023-05-12T22:39:54.910Z,94426.97
2023-05-12T22:42:21.784Z,94443.41
2023-05-12T22:44:48.598Z,94436.31
2023-05-12T22:47:15.624Z,94440.44
2023-05-12T22:49:42.515Z,94435.03
2023-05-12T22:52:09.476Z,94435.03
2023-05-12T22:54:36.292Z,94439.25
2023-05-12T22:57:03.116Z,94434.78
2023-05-12T22:59:29.939Z,94426.63
2023-05-12T23:01:56.764Z,94427.59
2023-05-12T23:04:23.611Z,94433.50
2023-05-12T23:06:50.642Z,94433.16
2023-05-12T23:09:17.498Z,94436.03
2023-05-12T23:11:44.342Z,94432.13
2023-05-12T23:14:11.671Z,94444.16
2023-05-12T23:16:38.707Z,94435.22
2023-05-12T23:19:05.695Z,94441.31
2023-05-12T23:21:33.149Z,94429.78
2023-05-12T23:24:00.284Z,94432.25
2023-05-12T23:26:27.166Z,94435.69
2023-05-12T23:28:54.355Z,94427.13
2023-05-12T23:31:21.212Z,94426.78
2023-05-12T23:33:48.093Z,94432.88
2023-05-12T23:36:14.996Z,94429.34
2023-05-12T23:38:41.858Z,94432.13
2023-05-12T23:41:08.780Z,94433.78
2023-05-12T23:43:35.642Z,94433.03
2023-05-12T23:46:02.777Z,94424.06
2023-05-12T23:48:30.415Z,94412.22
2023-05-12T23:50:57.358Z,94418.59
2023-05-12T23:53:24.203Z,94416.81
2023-05-12T23:55:51.106Z,94426.78
2023-05-12T23:58:17.928Z,94425.69
